sensor_id;sensor_type;location;lat;lon;timestamp;P1;durP1;ratioP1;P2;durP2;ratioP2
3819;SDS011;1925;51.356;9.530;2023-01-26T00:02:08;9.55;;;5.82;;
3819;SDS011;1925;51.356;9.530;2023-01-26T00:04:33;13.17;;;7.57;;
3819;SDS011;1925;51.356;9.530;2023-01-26T00:07:00;10.90;;;7.03;;
3819;SDS011;1925;51.356;9.530;2023-01-26T00:09:25;10.73;;;6.50;;
3819;SDS011;1925;51.356;9.530;2023-01-26T00:11:51;14.03;;;7.37;;
3819;SDS011;1925;51.356;9.530;2023-01-26T00:14:17;11.70;;;6.07;;
3819;SDS011;1925;51.356;9.530;2023-01-26T00:16:43;11.97;;;7.50;;
3819;SDS011;1925;51.356;9.530;2023-01-26T00:19:09;15.00;;;8.20;;
3819;SDS011;1925;51.356;9.530;2023-01-26T00:21:35;13.75;;;7.80;;
3819;SDS011;1925;51.356;9.530;2023-01-26T00:24:01;17.13;;;9.73;;
3819;SDS011;1925;51.356;9.530;2023-01-26T00:26:28;17.38;;;9.90;;
3819;SDS011;1925;51.356;9.530;2023-01-26T00:28:54;17.07;;;9.40;;
3819;SDS011;1925;51.356;9.530;2023-01-26T00:31:24;17.92;;;10.43;;
3819;SDS011;1925;51.356;9.530;2023-01-26T00:33:51;16.50;;;10.65;;
3819;SDS011;1925;51.356;9.530;2023-01-26T00:36:18;16.05;;;8.13;;
3819;SDS011;1925;51.356;9.530;2023-01-26T00:38:44;16.90;;;10.27;;
3819;SDS011;1925;51.356;9.530;2023-01-26T00:41:10;20.75;;;10.65;;
3819;SDS011;1925;51.356;9.530;2023-01-26T00:43:56;20.20;;;10.65;;
3819;SDS011;1925;51.356;9.530;2023-01-26T00:46:22;14.75;;;7.95;;
3819;SDS011;1925;51.356;9.530;2023-01-26T00:48:48;17.67;;;9.33;;
3819;SDS011;1925;51.356;9.530;2023-01-26T00:51:14;15.90;;;9.33;;
3819;SDS011;1925;51.356;9.530;2023-01-26T00:53:40;19.37;;;10.17;;
3819;SDS011;1925;51.356;9.530;2023-01-26T00:56:06;15.90;;;9.33;;
3819;SDS011;1925;51.356;9.530;2023-01-26T00:58:32;18.88;;;10.73;;
3819;SDS011;1925;51.356;9.530;2023-01-26T01:00:58;14.53;;;8.70;;
3819;SDS011;1925;51.356;9.530;2023-01-26T01:03:24;14.30;;;8.77;;
3819;SDS011;1925;51.356;9.530;2023-01-26T01:05:50;15.77;;;8.33;;
3819;SDS011;1925;51.356;9.530;2023-01-26T01:08:16;14.85;;;9.38;;
3819;SDS011;1925;51.356;9.530;2023-01-26T01:10:42;15.37;;;9.60;;
3819;SDS011;1925;51.356;9.530;2023-01-26T01:13:08;17.77;;;9.87;;
3819;SDS011;1925;51.356;9.530;2023-01-26T01:15:34;16.03;;;9.20;;
3819;SDS011;1925;51.356;9.530;2023-01-26T01:18:02;20.50;;;12.10;;
3819;SDS011;1925;51.356;9.530;2023-01-26T01:20:28;17.38;;;9.93;;
3819;SDS011;1925;51.356;9.530;2023-01-26T01:22:54;21.57;;;10.77;;
3819;SDS011;1925;51.356;9.530;2023-01-26T01:25:20;17.73;;;10.83;;
3819;SDS011;1925;51.356;9.530;2023-01-26T01:27:46;17.23;;;9.83;;
3819;SDS011;1925;51.356;9.530;2023-01-26T01:30:13;20.20;;;10.40;;
3819;SDS011;1925;51.356;9.530;2023-01-26T01:32:39;20.85;;;10.60;;
3819;SDS011;1925;51.356;9.530;2023-01-26T01:35:06;17.80;;;9.60;;
3819;SDS011;1925;51.356;9.530;2023-01-26T01:37:32;25.40;;;11.45;;
3819;SDS011;1925;51.356;9.530;2023-01-26T01:39:58;22.95;;;11.05;;
3819;SDS011;1925;51.356;9.530;2023-01-26T01:42:24;20.27;;;11.33;;
3819;SDS011;1925;51.356;9.530;2023-01-26T01:47:34;17.58;;;9.52;;
3819;SDS011;1925;51.356;9.530;2023-01-26T01:50:00;19.00;;;10.37;;
3819;SDS011;1925;51.356;9.530;2023-01-26T01:52:28;22.35;;;11.52;;
3819;SDS011;1925;51.356;9.530;2023-01-26T01:54:56;18.55;;;10.15;;
3819;SDS011;1925;51.356;9.530;2023-01-26T01:57:26;22.25;;;10.45;;
3819;SDS011;1925;51.356;9.530;2023-01-26T02:00:04;23.85;;;11.85;;
3819;SDS011;1925;51.356;9.530;2023-01-26T02:02:31;23.40;;;11.60;;
3819;SDS011;1925;51.356;9.530;2023-01-26T02:05:01;26.05;;;13.38;;
3819;SDS011;1925;51.356;9.530;2023-01-26T02:07:28;20.40;;;11.05;;
3819;SDS011;1925;51.356;9.530;2023-01-26T02:09:55;27.30;;;12.85;;
3819;SDS011;1925;51.356;9.530;2023-01-26T02:12:40;23.77;;;13.38;;
3819;SDS011;1925;51.356;9.530;2023-01-26T02:15:07;20.58;;;11.45;;
3819;SDS011;1925;51.356;9.530;2023-01-26T02:17:33;25.75;;;12.43;;
3819;SDS011;1925;51.356;9.530;2023-01-26T02:25:20;22.83;;;12.60;;
3819;SDS011;1925;51.356;9.530;2023-01-26T02:27:47;21.50;;;13.07;;
3819;SDS011;1925;51.356;9.530;2023-01-26T02:30:13;24.85;;;13.65;;
3819;SDS011;1925;51.356;9.530;2023-01-26T02:32:40;25.55;;;14.10;;
3819;SDS011;1925;51.356;9.530;2023-01-26T02:35:06;28.50;;;15.80;;
3819;SDS011;1925;51.356;9.530;2023-01-26T02:37:32;25.65;;;13.90;;
3819;SDS011;1925;51.356;9.530;2023-01-26T02:40:02;27.57;;;14.47;;
3819;SDS011;1925;51.356;9.530;2023-01-26T02:42:30;29.30;;;13.77;;
3819;SDS011;1925;51.356;9.530;2023-01-26T02:45:09;25.75;;;14.40;;
3819;SDS011;1925;51.356;9.530;2023-01-26T02:47:35;25.48;;;13.90;;
3819;SDS011;1925;51.356;9.530;2023-01-26T02:50:01;24.37;;;12.90;;
3819;SDS011;1925;51.356;9.530;2023-01-26T02:52:28;34.93;;;15.43;;
3819;SDS011;1925;51.356;9.530;2023-01-26T02:54:57;32.10;;;16.20;;
3819;SDS011;1925;51.356;9.530;2023-01-26T02:57:42;30.15;;;15.50;;
3819;SDS011;1925;51.356;9.530;2023-01-26T03:00:09;23.33;;;12.95;;
3819;SDS011;1925;51.356;9.530;2023-01-26T03:02:36;22.83;;;13.40;;
3819;SDS011;1925;51.356;9.530;2023-01-26T03:05:02;25.40;;;13.95;;
3819;SDS011;1925;51.356;9.530;2023-01-26T03:07:28;24.58;;;13.70;;
3819;SDS011;1925;51.356;9.530;2023-01-26T03:09:54;29.67;;;14.13;;
3819;SDS011;1925;51.356;9.530;2023-01-26T03:12:22;28.35;;;14.75;;
3819;SDS011;1925;51.356;9.530;2023-01-26T03:14:48;25.20;;;12.37;;
3819;SDS011;1925;51.356;9.530;2023-01-26T03:17:34;31.52;;;15.48;;
3819;SDS011;1925;51.356;9.530;2023-01-26T03:20:00;31.75;;;14.60;;
3819;SDS011;1925;51.356;9.530;2023-01-26T03:22:45;29.73;;;15.00;;
3819;SDS011;1925;51.356;9.530;2023-01-26T03:25:29;30.00;;;15.15;;
3819;SDS011;1925;51.356;9.530;2023-01-26T03:28:14;29.05;;;15.10;;
3819;SDS011;1925;51.356;9.530;2023-01-26T03:30:40;29.42;;;15.50;;
3819;SDS011;1925;51.356;9.530;2023-01-26T03:33:06;27.60;;;14.70;;
3819;SDS011;1925;51.356;9.530;2023-01-26T03:35:32;30.40;;;14.80;;
3819;SDS011;1925;51.356;9.530;2023-01-26T03:37:58;33.40;;;16.40;;
3819;SDS011;1925;51.356;9.530;2023-01-26T03:40:23;28.17;;;15.30;;
3819;SDS011;1925;51.356;9.530;2023-01-26T03:43:08;31.60;;;15.98;;
3819;SDS011;1925;51.356;9.530;2023-01-26T03:45:53;28.15;;;16.30;;
3819;SDS011;1925;51.356;9.530;2023-01-26T03:48:37;28.48;;;15.13;;
3819;SDS011;1925;51.356;9.530;2023-01-26T03:51:22;30.83;;;17.10;;
3819;SDS011;1925;51.356;9.530;2023-01-26T03:54:06;27.45;;;14.25;;
3819;SDS011;1925;51.356;9.530;2023-01-26T03:56:51;29.00;;;15.70;;
3819;SDS011;1925;51.356;9.530;2023-01-26T03:59:17;29.43;;;15.23;;
3819;SDS011;1925;51.356;9.530;2023-01-26T04:02:01;32.22;;;16.05;;
3819;SDS011;1925;51.356;9.530;2023-01-26T04:04:46;32.40;;;16.85;;
3819;SDS011;1925;51.356;9.530;2023-01-26T04:07:31;33.05;;;16.58;;
3819;SDS011;1925;51.356;9.530;2023-01-26T04:10:15;32.78;;;15.82;;
3819;SDS011;1925;51.356;9.530;2023-01-26T04:12:41;34.27;;;17.50;;
3819;SDS011;1925;51.356;9.530;2023-01-26T04:15:07;35.53;;;16.13;;
3819;SDS011;1925;51.356;9.530;2023-01-26T04:17:52;30.88;;;17.40;;
3819;SDS011;1925;51.356;9.530;2023-01-26T04:20:37;27.38;;;14.50;;
3819;SDS011;1925;51.356;9.530;2023-01-26T04:23:21;35.85;;;18.15;;
3819;SDS011;1925;51.356;9.530;2023-01-26T04:25:47;28.63;;;15.70;;
3819;SDS011;1925;51.356;9.530;2023-01-26T04:28:13;27.27;;;16.17;;
3819;SDS011;1925;51.356;9.530;2023-01-26T04:30:39;33.43;;;17.07;;
3819;SDS011;1925;51.356;9.530;2023-01-26T04:33:05;32.00;;;16.88;;
3819;SDS011;1925;51.356;9.530;2023-01-26T04:35:32;40.77;;;18.97;;
3819;SDS011;1925;51.356;9.530;2023-01-26T04:37:58;40.20;;;19.95;;
3819;SDS011;1925;51.356;9.530;2023-01-26T04:40:24;38.70;;;19.30;;
3819;SDS011;1925;51.356;9.530;2023-01-26T04:42:49;42.17;;;20.23;;
3819;SDS011;1925;51.356;9.530;2023-01-26T04:45:15;39.90;;;19.43;;
3819;SDS011;1925;51.356;9.530;2023-01-26T04:47:41;38.50;;;18.83;;
3819;SDS011;1925;51.356;9.530;2023-01-26T04:50:07;42.23;;;22.70;;
3819;SDS011;1925;51.356;9.530;2023-01-26T04:52:34;46.80;;;22.10;;
3819;SDS011;1925;51.356;9.530;2023-01-26T04:55:00;38.30;;;19.10;;
3819;SDS011;1925;51.356;9.530;2023-01-26T04:57:26;39.38;;;19.33;;
3819;SDS011;1925;51.356;9.530;2023-01-26T04:59:52;42.60;;;18.73;;
3819;SDS011;1925;51.356;9.530;2023-01-26T05:02:18;41.13;;;21.13;;
3819;SDS011;1925;51.356;9.530;2023-01-26T05:04:43;43.40;;;21.90;;
3819;SDS011;1925;51.356;9.530;2023-01-26T05:07:09;48.13;;;22.03;;
3819;SDS011;1925;51.356;9.530;2023-01-26T05:09:35;49.20;;;22.43;;
3819;SDS011;1925;51.356;9.530;2023-01-26T05:12:01;48.00;;;22.13;;
3819;SDS011;1925;51.356;9.530;2023-01-26T05:14:47;44.33;;;20.95;;
3819;SDS011;1925;51.356;9.530;2023-01-26T05:17:13;55.70;;;22.60;;
3819;SDS011;1925;51.356;9.530;2023-01-26T05:19:39;49.83;;;21.70;;
3819;SDS011;1925;51.356;9.530;2023-01-26T05:22:05;58.70;;;24.00;;
3819;SDS011;1925;51.356;9.530;2023-01-26T05:24:31;47.50;;;22.77;;
3819;SDS011;1925;51.356;9.530;2023-01-26T05:26:57;56.50;;;23.83;;
3819;SDS011;1925;51.356;9.530;2023-01-26T05:29:41;61.15;;;25.25;;
3819;SDS011;1925;51.356;9.530;2023-01-26T05:32:07;57.20;;;26.47;;
3819;SDS011;1925;51.356;9.530;2023-01-26T05:34:33;62.93;;;25.10;;
3819;SDS011;1925;51.356;9.530;2023-01-26T05:36:59;61.47;;;25.90;;
3819;SDS011;1925;51.356;9.530;2023-01-26T05:39:25;55.28;;;25.10;;
3819;SDS011;1925;51.356;9.530;2023-01-26T05:41:51;55.50;;;23.60;;
3819;SDS011;1925;51.356;9.530;2023-01-26T05:44:20;61.17;;;25.52;;
3819;SDS011;1925;51.356;9.530;2023-01-26T05:46:46;53.58;;;25.25;;
3819;SDS011;1925;51.356;9.530;2023-01-26T05:49:11;52.50;;;24.50;;
3819;SDS011;1925;51.356;9.530;2023-01-26T05:51:37;66.40;;;25.60;;
3819;SDS011;1925;51.356;9.530;2023-01-26T05:54:03;58.87;;;24.33;;
3819;SDS011;1925;51.356;9.530;2023-01-26T05:56:29;61.38;;;26.60;;
3819;SDS011;1925;51.356;9.530;2023-01-26T05:58:55;61.23;;;26.90;;
3819;SDS011;1925;51.356;9.530;2023-01-26T06:01:21;55.50;;;27.73;;
3819;SDS011;1925;51.356;9.530;2023-01-26T06:03:47;56.33;;;25.30;;
3819;SDS011;1925;51.356;9.530;2023-01-26T06:06:13;53.60;;;22.70;;
3819;SDS011;1925;51.356;9.530;2023-01-26T06:08:39;62.83;;;24.37;;
3819;SDS011;1925;51.356;9.530;2023-01-26T06:11:05;56.53;;;24.03;;
3819;SDS011;1925;51.356;9.530;2023-01-26T06:13:31;55.10;;;21.90;;
3819;SDS011;1925;51.356;9.530;2023-01-26T06:15:59;51.60;;;24.03;;
3819;SDS011;1925;51.356;9.530;2023-01-26T06:18:25;58.92;;;24.35;;
3819;SDS011;1925;51.356;9.530;2023-01-26T06:20:51;59.93;;;25.67;;
3819;SDS011;1925;51.356;9.530;2023-01-26T06:23:17;58.43;;;26.40;;
3819;SDS011;1925;51.356;9.530;2023-01-26T06:25:43;59.43;;;25.00;;
3819;SDS011;1925;51.356;9.530;2023-01-26T06:28:09;59.47;;;25.75;;
3819;SDS011;1925;51.356;9.530;2023-01-26T06:30:35;66.97;;;27.27;;
3819;SDS011;1925;51.356;9.530;2023-01-26T06:33:01;61.83;;;27.08;;
3819;SDS011;1925;51.356;9.530;2023-01-26T06:35:27;55.20;;;25.10;;
3819;SDS011;1925;51.356;9.530;2023-01-26T06:37:53;65.30;;;25.30;;
3819;SDS011;1925;51.356;9.530;2023-01-26T06:40:19;76.60;;;27.53;;
3819;SDS011;1925;51.356;9.530;2023-01-26T06:42:46;53.35;;;26.20;;
3819;SDS011;1925;51.356;9.530;2023-01-26T06:45:12;67.80;;;27.35;;
3819;SDS011;1925;51.356;9.530;2023-01-26T06:47:42;50.73;;;24.00;;
3819;SDS011;1925;51.356;9.530;2023-01-26T06:50:09;69.25;;;26.00;;
3819;SDS011;1925;51.356;9.530;2023-01-26T06:52:35;67.43;;;27.70;;
3819;SDS011;1925;51.356;9.530;2023-01-26T06:55:01;56.57;;;24.47;;
3819;SDS011;1925;51.356;9.530;2023-01-26T06:57:27;58.72;;;25.65;;
3819;SDS011;1925;51.356;9.530;2023-01-26T06:59:53;52.80;;;23.93;;
3819;SDS011;1925;51.356;9.530;2023-01-26T07:02:21;62.22;;;26.40;;
3819;SDS011;1925;51.356;9.530;2023-01-26T07:04:47;60.70;;;28.33;;
3819;SDS011;1925;51.356;9.530;2023-01-26T07:07:14;56.40;;;23.80;;
3819;SDS011;1925;51.356;9.530;2023-01-26T07:09:39;64.80;;;26.87;;
3819;SDS011;1925;51.356;9.530;2023-01-26T07:12:06;63.10;;;24.30;;
3819;SDS011;1925;51.356;9.530;2023-01-26T07:14:32;60.22;;;25.30;;
3819;SDS011;1925;51.356;9.530;2023-01-26T07:16:58;47.97;;;21.58;;
3819;SDS011;1925;51.356;9.530;2023-01-26T07:19:24;57.50;;;25.10;;
3819;SDS011;1925;51.356;9.530;2023-01-26T07:21:50;59.03;;;24.90;;
3819;SDS011;1925;51.356;9.530;2023-01-26T07:24:16;58.70;;;22.52;;
3819;SDS011;1925;51.356;9.530;2023-01-26T07:26:45;50.50;;;24.52;;
3819;SDS011;1925;51.356;9.530;2023-01-26T07:29:11;57.60;;;22.20;;
3819;SDS011;1925;51.356;9.530;2023-01-26T07:31:37;55.30;;;23.67;;
3819;SDS011;1925;51.356;9.530;2023-01-26T07:34:05;53.05;;;20.65;;
3819;SDS011;1925;51.356;9.530;2023-01-26T07:36:31;59.93;;;23.43;;
3819;SDS011;1925;51.356;9.530;2023-01-26T07:38:57;68.20;;;24.07;;
3819;SDS011;1925;51.356;9.530;2023-01-26T07:41:22;54.27;;;21.97;;
3819;SDS011;1925;51.356;9.530;2023-01-26T07:43:48;59.90;;;22.70;;
3819;SDS011;1925;51.356;9.530;2023-01-26T07:46:15;70.95;;;24.88;;
3819;SDS011;1925;51.356;9.530;2023-01-26T07:48:41;59.53;;;23.70;;
3819;SDS011;1925;51.356;9.530;2023-01-26T07:51:07;50.97;;;21.80;;
3819;SDS011;1925;51.356;9.530;2023-01-26T07:53:35;54.60;;;21.63;;
3819;SDS011;1925;51.356;9.530;2023-01-26T07:58:32;61.08;;;22.73;;
3819;SDS011;1925;51.356;9.530;2023-01-26T08:01:06;46.97;;;21.13;;
3819;SDS011;1925;51.356;9.530;2023-01-26T08:03:32;45.63;;;20.10;;
3819;SDS011;1925;51.356;9.530;2023-01-26T08:05:58;51.70;;;20.83;;
3819;SDS011;1925;51.356;9.530;2023-01-26T08:08:25;44.80;;;18.52;;
3819;SDS011;1925;51.356;9.530;2023-01-26T08:10:54;52.40;;;21.60;;
3819;SDS011;1925;51.356;9.530;2023-01-26T08:13:20;44.22;;;22.08;;
3819;SDS011;1925;51.356;9.530;2023-01-26T08:15:46;41.63;;;19.63;;
3819;SDS011;1925;51.356;9.530;2023-01-26T08:18:12;44.37;;;19.60;;
3819;SDS011;1925;51.356;9.530;2023-01-26T08:20:38;50.47;;;18.87;;
3819;SDS011;1925;51.356;9.530;2023-01-26T08:23:04;40.93;;;18.50;;
3819;SDS011;1925;51.356;9.530;2023-01-26T08:25:29;44.27;;;19.03;;
3819;SDS011;1925;51.356;9.530;2023-01-26T08:27:57;56.75;;;20.08;;
3819;SDS011;1925;51.356;9.530;2023-01-26T08:30:23;48.33;;;20.97;;
3819;SDS011;1925;51.356;9.530;2023-01-26T08:32:49;35.27;;;17.73;;
3819;SDS011;1925;51.356;9.530;2023-01-26T08:35:15;46.42;;;19.13;;
3819;SDS011;1925;51.356;9.530;2023-01-26T08:37:41;46.87;;;20.70;;
3819;SDS011;1925;51.356;9.530;2023-01-26T08:40:07;45.73;;;20.47;;
3819;SDS011;1925;51.356;9.530;2023-01-26T08:42:34;45.63;;;20.50;;
3819;SDS011;1925;51.356;9.530;2023-01-26T08:45:00;43.77;;;20.33;;
3819;SDS011;1925;51.356;9.530;2023-01-26T08:47:26;46.00;;;21.60;;
3819;SDS011;1925;51.356;9.530;2023-01-26T08:49:52;38.40;;;17.40;;
3819;SDS011;1925;51.356;9.530;2023-01-26T08:52:17;38.53;;;16.97;;
3819;SDS011;1925;51.356;9.530;2023-01-26T08:54:45;38.45;;;19.42;;
3819;SDS011;1925;51.356;9.530;2023-01-26T08:57:11;42.10;;;16.53;;
3819;SDS011;1925;51.356;9.530;2023-01-26T08:59:37;35.67;;;16.37;;
3819;SDS011;1925;51.356;9.530;2023-01-26T09:02:03;33.73;;;17.30;;
3819;SDS011;1925;51.356;9.530;2023-01-26T09:04:29;32.47;;;15.37;;
3819;SDS011;1925;51.356;9.530;2023-01-26T09:06:55;37.60;;;17.60;;
3819;SDS011;1925;51.356;9.530;2023-01-26T09:09:21;34.37;;;16.23;;
3819;SDS011;1925;51.356;9.530;2023-01-26T09:11:47;33.63;;;15.80;;
3819;SDS011;1925;51.356;9.530;2023-01-26T09:14:12;33.97;;;16.10;;
3819;SDS011;1925;51.356;9.530;2023-01-26T09:16:39;34.70;;;15.43;;
3819;SDS011;1925;51.356;9.530;2023-01-26T09:19:04;37.23;;;17.27;;
3819;SDS011;1925;51.356;9.530;2023-01-26T09:21:30;31.00;;;14.63;;
3819;SDS011;1925;51.356;9.530;2023-01-26T09:23:56;33.85;;;14.48;;
3819;SDS011;1925;51.356;9.530;2023-01-26T09:26:22;28.83;;;14.10;;
3819;SDS011;1925;51.356;9.530;2023-01-26T09:28:49;29.25;;;14.85;;
3819;SDS011;1925;51.356;9.530;2023-01-26T09:31:15;33.25;;;15.20;;
3819;SDS011;1925;51.356;9.530;2023-01-26T09:33:41;29.97;;;14.10;;
3819;SDS011;1925;51.356;9.530;2023-01-26T09:36:08;30.60;;;15.70;;
3819;SDS011;1925;51.356;9.530;2023-01-26T09:38:34;32.90;;;14.38;;
3819;SDS011;1925;51.356;9.530;2023-01-26T09:41:05;31.38;;;14.93;;
3819;SDS011;1925;51.356;9.530;2023-01-26T09:43:35;28.92;;;14.38;;
3819;SDS011;1925;51.356;9.530;2023-01-26T09:46:14;33.25;;;14.70;;
3819;SDS011;1925;51.356;9.530;2023-01-26T09:51:22;30.25;;;14.10;;
3819;SDS011;1925;51.356;9.530;2023-01-26T09:53:53;29.05;;;15.25;;
3819;SDS011;1925;51.356;9.530;2023-01-26T09:56:23;28.85;;;14.23;;
3819;SDS011;1925;51.356;9.530;2023-01-26T09:58:54;28.27;;;13.88;;
3819;SDS011;1925;51.356;9.530;2023-01-26T10:01:23;34.42;;;15.35;;
3819;SDS011;1925;51.356;9.530;2023-01-26T10:03:59;29.73;;;15.63;;
3819;SDS011;1925;51.356;9.530;2023-01-26T10:06:26;32.17;;;14.60;;
3819;SDS011;1925;51.356;9.530;2023-01-26T10:08:54;31.55;;;14.95;;
3819;SDS011;1925;51.356;9.530;2023-01-26T10:11:23;29.92;;;16.25;;
3819;SDS011;1925;51.356;9.530;2023-01-26T10:13:58;33.38;;;14.95;;
3819;SDS011;1925;51.356;9.530;2023-01-26T10:16:25;35.10;;;15.90;;
3819;SDS011;1925;51.356;9.530;2023-01-26T10:18:59;33.58;;;16.45;;
3819;SDS011;1925;51.356;9.530;2023-01-26T10:21:29;28.60;;;14.57;;
3819;SDS011;1925;51.356;9.530;2023-01-26T10:23:55;37.88;;;17.00;;
3819;SDS011;1925;51.356;9.530;2023-01-26T10:26:26;35.90;;;16.02;;
3819;SDS011;1925;51.356;9.530;2023-01-26T10:28:54;39.92;;;16.48;;
3819;SDS011;1925;51.356;9.530;2023-01-26T10:31:21;38.47;;;15.80;;
3819;SDS011;1925;51.356;9.530;2023-01-26T10:33:52;33.28;;;17.02;;
3819;SDS011;1925;51.356;9.530;2023-01-26T10:36:19;34.00;;;15.85;;
3819;SDS011;1925;51.356;9.530;2023-01-26T10:38:45;33.80;;;16.48;;
3819;SDS011;1925;51.356;9.530;2023-01-26T10:44:00;42.03;;;19.00;;
3819;SDS011;1925;51.356;9.530;2023-01-26T10:46:33;41.47;;;19.88;;
3819;SDS011;1925;51.356;9.530;2023-01-26T10:49:01;37.25;;;17.17;;
3819;SDS011;1925;51.356;9.530;2023-01-26T10:51:31;44.20;;;19.83;;
3819;SDS011;1925;51.356;9.530;2023-01-26T10:56:43;42.67;;;18.48;;
3819;SDS011;1925;51.356;9.530;2023-01-26T10:59:12;35.78;;;18.20;;
3819;SDS011;1925;51.356;9.530;2023-01-26T11:01:50;41.03;;;20.10;;
3819;SDS011;1925;51.356;9.530;2023-01-26T11:04:16;41.28;;;18.63;;
3819;SDS011;1925;51.356;9.530;2023-01-26T11:06:43;44.80;;;19.70;;
3819;SDS011;1925;51.356;9.530;2023-01-26T11:11:35;46.77;;;21.30;;
3819;SDS011;1925;51.356;9.530;2023-01-26T11:14:11;47.22;;;22.98;;
3819;SDS011;1925;51.356;9.530;2023-01-26T11:16:40;45.35;;;20.52;;
3819;SDS011;1925;51.356;9.530;2023-01-26T11:22:01;46.05;;;21.70;;
3819;SDS011;1925;51.356;9.530;2023-01-26T11:24:49;41.70;;;19.63;;
3819;SDS011;1925;51.356;9.530;2023-01-26T11:42:20;42.40;;;21.08;;
3819;SDS011;1925;51.356;9.530;2023-01-26T11:50:05;44.35;;;20.90;;
3819;SDS011;1925;51.356;9.530;2023-01-26T11:55:15;47.38;;;20.95;;
3819;SDS011;1925;51.356;9.530;2023-01-26T12:00:16;44.13;;;19.90;;
3819;SDS011;1925;51.356;9.530;2023-01-26T12:02:44;43.10;;;20.90;;
3819;SDS011;1925;51.356;9.530;2023-01-26T12:10:19;52.20;;;22.77;;
3819;SDS011;1925;51.356;9.530;2023-01-26T12:12:48;44.95;;;24.02;;
3819;SDS011;1925;51.356;9.530;2023-01-26T12:15:20;46.20;;;21.52;;
3819;SDS011;1925;51.356;9.530;2023-01-26T12:17:59;50.65;;;22.13;;
3819;SDS011;1925;51.356;9.530;2023-01-26T12:23:03;46.67;;;22.27;;
3819;SDS011;1925;51.356;9.530;2023-01-26T12:25:33;51.35;;;24.33;;
3819;SDS011;1925;51.356;9.530;2023-01-26T12:28:02;46.67;;;21.58;;
3819;SDS011;1925;51.356;9.530;2023-01-26T12:32:59;44.55;;;21.52;;
3819;SDS011;1925;51.356;9.530;2023-01-26T12:36:12;46.13;;;22.90;;
3819;SDS011;1925;51.356;9.530;2023-01-26T12:38:13;44.95;;;22.52;;
3819;SDS011;1925;51.356;9.530;2023-01-26T12:46:16;51.67;;;24.90;;
3819;SDS011;1925;51.356;9.530;2023-01-26T12:48:45;49.03;;;23.05;;
3819;SDS011;1925;51.356;9.530;2023-01-26T12:53:55;48.67;;;23.10;;
3819;SDS011;1925;51.356;9.530;2023-01-26T12:56:41;51.92;;;24.25;;
3819;SDS011;1925;51.356;9.530;2023-01-26T12:59:14;49.05;;;22.33;;
3819;SDS011;1925;51.356;9.530;2023-01-26T13:01:41;43.60;;;20.80;;
3819;SDS011;1925;51.356;9.530;2023-01-26T13:04:08;48.20;;;23.67;;
3819;SDS011;1925;51.356;9.530;2023-01-26T13:06:35;48.35;;;22.92;;
3819;SDS011;1925;51.356;9.530;2023-01-26T13:11:46;51.95;;;23.70;;
3819;SDS011;1925;51.356;9.530;2023-01-26T13:16:57;47.90;;;22.08;;
3819;SDS011;1925;51.356;9.530;2023-01-26T13:24:44;46.95;;;23.27;;
3819;SDS011;1925;51.356;9.530;2023-01-26T13:27:30;57.22;;;23.00;;
3819;SDS011;1925;51.356;9.530;2023-01-26T13:29:57;57.70;;;25.35;;
3819;SDS011;1925;51.356;9.530;2023-01-26T13:32:50;59.53;;;26.30;;
3819;SDS011;1925;51.356;9.530;2023-01-26T13:35:09;51.15;;;22.10;;
3819;SDS011;1925;51.356;9.530;2023-01-26T13:37:45;56.70;;;25.35;;
3819;SDS011;1925;51.356;9.530;2023-01-26T13:40:23;47.92;;;23.27;;
3819;SDS011;1925;51.356;9.530;2023-01-26T13:42:54;46.80;;;21.65;;
3819;SDS011;1925;51.356;9.530;2023-01-26T13:47:53;43.15;;;21.20;;
3819;SDS011;1925;51.356;9.530;2023-01-26T13:50:30;39.47;;;20.35;;
3819;SDS011;1925;51.356;9.530;2023-01-26T13:52:57;43.78;;;21.05;;
3819;SDS011;1925;51.356;9.530;2023-01-26T13:55:24;49.03;;;21.27;;
3819;SDS011;1925;51.356;9.530;2023-01-26T13:58:12;45.67;;;20.90;;
3819;SDS011;1925;51.356;9.530;2023-01-26T14:00:39;46.42;;;20.27;;
3819;SDS011;1925;51.356;9.530;2023-01-26T14:03:16;40.63;;;20.50;;
3819;SDS011;1925;51.356;9.530;2023-01-26T14:05:43;45.53;;;19.05;;
3819;SDS011;1925;51.356;9.530;2023-01-26T14:08:15;41.88;;;19.45;;
3819;SDS011;1925;51.356;9.530;2023-01-26T14:10:42;40.42;;;19.23;;
3819;SDS011;1925;51.356;9.530;2023-01-26T14:13:13;42.72;;;22.92;;
3819;SDS011;1925;51.356;9.530;2023-01-26T14:15:40;45.97;;;21.00;;
3819;SDS011;1925;51.356;9.530;2023-01-26T14:18:13;37.93;;;17.93;;
3819;SDS011;1925;51.356;9.530;2023-01-26T14:20:44;41.50;;;18.77;;
3819;SDS011;1925;51.356;9.530;2023-01-26T14:23:14;44.17;;;21.65;;
3819;SDS011;1925;51.356;9.530;2023-01-26T14:25:55;43.67;;;19.30;;
3819;SDS011;1925;51.356;9.530;2023-01-26T14:28:21;45.55;;;20.60;;
3819;SDS011;1925;51.356;9.530;2023-01-26T14:31:01;39.55;;;17.50;;
3819;SDS011;1925;51.356;9.530;2023-01-26T14:33:27;39.20;;;18.42;;
3819;SDS011;1925;51.356;9.530;2023-01-26T14:35:56;37.72;;;18.65;;
3819;SDS011;1925;51.356;9.530;2023-01-26T14:38:22;37.00;;;18.65;;
3819;SDS011;1925;51.356;9.530;2023-01-26T14:40:51;41.28;;;19.58;;
3819;SDS011;1925;51.356;9.530;2023-01-26T14:43:17;42.38;;;18.35;;
3819;SDS011;1925;51.356;9.530;2023-01-26T14:45:48;38.30;;;17.55;;
3819;SDS011;1925;51.356;9.530;2023-01-26T14:48:17;37.03;;;17.67;;
3819;SDS011;1925;51.356;9.530;2023-01-26T14:50:45;35.88;;;17.58;;
3819;SDS011;1925;51.356;9.530;2023-01-26T14:53:15;34.47;;;17.23;;
3819;SDS011;1925;51.356;9.530;2023-01-26T14:55:42;33.08;;;16.60;;
3819;SDS011;1925;51.356;9.530;2023-01-26T14:58:28;28.30;;;15.02;;
3819;SDS011;1925;51.356;9.530;2023-01-26T15:00:55;26.35;;;14.25;;
3819;SDS011;1925;51.356;9.530;2023-01-26T15:05:48;32.83;;;16.07;;
3819;SDS011;1925;51.356;9.530;2023-01-26T15:08:27;30.63;;;15.18;;
3819;SDS011;1925;51.356;9.530;2023-01-26T15:10:57;34.67;;;15.43;;
3819;SDS011;1925;51.356;9.530;2023-01-26T15:13:43;29.95;;;16.20;;
3819;SDS011;1925;51.356;9.530;2023-01-26T15:16:16;29.55;;;15.07;;
3819;SDS011;1925;51.356;9.530;2023-01-26T15:18:43;27.38;;;14.60;;
3819;SDS011;1925;51.356;9.530;2023-01-26T15:21:11;34.25;;;16.45;;
3819;SDS011;1925;51.356;9.530;2023-01-26T15:23:41;28.95;;;14.98;;
3819;SDS011;1925;51.356;9.530;2023-01-26T15:26:11;33.53;;;14.15;;
3819;SDS011;1925;51.356;9.530;2023-01-26T15:28:38;30.75;;;16.15;;
3819;SDS011;1925;51.356;9.530;2023-01-26T15:31:04;31.97;;;16.00;;
3819;SDS011;1925;51.356;9.530;2023-01-26T15:33:42;35.67;;;19.02;;
3819;SDS011;1925;51.356;9.530;2023-01-26T15:38:47;29.23;;;15.55;;
3819;SDS011;1925;51.356;9.530;2023-01-26T15:41:13;33.20;;;15.77;;
3819;SDS011;1925;51.356;9.530;2023-01-26T15:43:39;30.52;;;17.60;;
3819;SDS011;1925;51.356;9.530;2023-01-26T15:46:06;36.43;;;15.50;;
3819;SDS011;1925;51.356;9.530;2023-01-26T15:48:33;28.13;;;14.43;;
3819;SDS011;1925;51.356;9.530;2023-01-26T15:50:59;28.10;;;15.30;;
3819;SDS011;1925;51.356;9.530;2023-01-26T15:53:25;26.40;;;13.65;;
3819;SDS011;1925;51.356;9.530;2023-01-26T15:55:51;25.20;;;13.90;;
3819;SDS011;1925;51.356;9.530;2023-01-26T15:58:20;27.63;;;14.25;;
3819;SDS011;1925;51.356;9.530;2023-01-26T16:00:46;25.30;;;12.75;;
3819;SDS011;1925;51.356;9.530;2023-01-26T16:03:14;25.00;;;12.00;;
3819;SDS011;1925;51.356;9.530;2023-01-26T16:05:40;18.25;;;11.38;;
3819;SDS011;1925;51.356;9.530;2023-01-26T16:08:08;24.17;;;12.52;;
3819;SDS011;1925;51.356;9.530;2023-01-26T16:10:34;24.45;;;13.25;;
3819;SDS011;1925;51.356;9.530;2023-01-26T16:12:59;22.80;;;12.67;;
3819;SDS011;1925;51.356;9.530;2023-01-26T16:15:30;18.33;;;10.93;;
3819;SDS011;1925;51.356;9.530;2023-01-26T16:17:57;18.55;;;10.82;;
3819;SDS011;1925;51.356;9.530;2023-01-26T16:20:23;21.50;;;10.73;;
3819;SDS011;1925;51.356;9.530;2023-01-26T16:22:49;20.73;;;12.73;;
3819;SDS011;1925;51.356;9.530;2023-01-26T16:25:18;20.67;;;10.93;;